sensor_id;sensor_type;location;lat;lon;timestamp;P1;durP1;ratioP1;P2;durP2;ratioP2
19173;SDS011;9719;49.322;8.536;2023-04-07T00:02:56;9.10;;;6.83;;
19173;SDS011;9719;49.322;8.536;2023-04-07T00:07:59;7.37;;;6.77;;
19173;SDS011;9719;49.322;8.536;2023-04-07T00:13:01;7.57;;;6.27;;
19173;SDS011;9719;49.322;8.536;2023-04-07T00:18:03;7.60;;;6.80;;
19173;SDS011;9719;49.322;8.536;2023-04-07T00:23:06;7.30;;;6.30;;
19173;SDS011;9719;49.322;8.536;2023-04-07T00:28:07;7.40;;;6.70;;
19173;SDS011;9719;49.322;8.536;2023-04-07T00:33:09;7.23;;;6.30;;
19173;SDS011;9719;49.322;8.536;2023-04-07T00:38:12;6.87;;;6.17;;
19173;SDS011;9719;49.322;8.536;2023-04-07T00:43:14;6.43;;;5.83;;
19173;SDS011;9719;49.322;8.536;2023-04-07T00:48:15;6.77;;;6.17;;
19173;SDS011;9719;49.322;8.536;2023-04-07T00:53:19;9.43;;;6.97;;
19173;SDS011;9719;49.322;8.536;2023-04-07T00:58:21;7.40;;;6.70;;
19173;SDS011;9719;49.322;8.536;2023-04-07T01:03:24;9.87;;;7.27;;
19173;SDS011;9719;49.322;8.536;2023-04-07T01:08:34;7.37;;;6.30;;
19173;SDS011;9719;49.322;8.536;2023-04-07T01:13:43;7.57;;;6.73;;
19173;SDS011;9719;49.322;8.536;2023-04-07T01:18:49;7.87;;;7.07;;
19173;SDS011;9719;49.322;8.536;2023-04-07T01:24:02;8.83;;;6.83;;
19173;SDS011;9719;49.322;8.536;2023-04-07T01:29:29;8.90;;;7.63;;
19173;SDS011;9719;49.322;8.536;2023-04-07T01:34:35;7.07;;;6.40;;
19173;SDS011;9719;49.322;8.536;2023-04-07T01:39:38;7.43;;;6.73;;
19173;SDS011;9719;49.322;8.536;2023-04-07T01:44:41;7.23;;;6.53;;
19173;SDS011;9719;49.322;8.536;2023-04-07T01:49:44;8.47;;;6.40;;
19173;SDS011;9719;49.322;8.536;2023-04-07T01:54:47;7.57;;;6.80;;
19173;SDS011;9719;49.322;8.536;2023-04-07T01:59:50;7.70;;;7.00;;
19173;SDS011;9719;49.322;8.536;2023-04-07T02:04:53;9.57;;;8.60;;
19173;SDS011;9719;49.322;8.536;2023-04-07T02:09:56;7.53;;;6.70;;
19173;SDS011;9719;49.322;8.536;2023-04-07T02:15:01;8.40;;;6.60;;
19173;SDS011;9719;49.322;8.536;2023-04-07T02:20:05;7.27;;;6.57;;
19173;SDS011;9719;49.322;8.536;2023-04-07T02:25:19;6.77;;;6.07;;
19173;SDS011;9719;49.322;8.536;2023-04-07T02:30:26;8.43;;;6.80;;
19173;SDS011;9719;49.322;8.536;2023-04-07T02:35:28;9.90;;;7.33;;
19173;SDS011;9719;49.322;8.536;2023-04-07T02:40:29;7.27;;;6.47;;
19173;SDS011;9719;49.322;8.536;2023-04-07T02:45:32;8.13;;;6.93;;
19173;SDS011;9719;49.322;8.536;2023-04-07T02:50:34;7.57;;;6.87;;
19173;SDS011;9719;49.322;8.536;2023-04-07T02:55:36;8.50;;;7.67;;
19173;SDS011;9719;49.322;8.536;2023-04-07T03:00:39;7.20;;;6.50;;
19173;SDS011;9719;49.322;8.536;2023-04-07T03:05:40;7.23;;;6.50;;
19173;SDS011;9719;49.322;8.536;2023-04-07T03:10:42;7.40;;;6.70;;
19173;SDS011;9719;49.322;8.536;2023-04-07T03:15:45;8.80;;;6.83;;
19173;SDS011;9719;49.322;8.536;2023-04-07T03:20:47;7.53;;;6.77;;
19173;SDS011;9719;49.322;8.536;2023-04-07T03:25:49;8.00;;;6.40;;
19173;SDS011;9719;49.322;8.536;2023-04-07T03:30:52;7.43;;;6.37;;
19173;SDS011;9719;49.322;8.536;2023-04-07T03:35:53;9.30;;;6.90;;
19173;SDS011;9719;49.322;8.536;2023-04-07T03:40:55;8.63;;;6.97;;
19173;SDS011;9719;49.322;8.536;2023-04-07T03:45:58;8.13;;;7.33;;
19173;SDS011;9719;49.322;8.536;2023-04-07T03:51:00;8.57;;;7.70;;
19173;SDS011;9719;49.322;8.536;2023-04-07T03:56:01;8.13;;;7.33;;
19173;SDS011;9719;49.322;8.536;2023-04-07T04:01:05;9.20;;;7.33;;
19173;SDS011;9719;49.322;8.536;2023-04-07T04:06:07;8.50;;;7.67;;
19173;SDS011;9719;49.322;8.536;2023-04-07T04:11:08;9.23;;;7.93;;
19173;SDS011;9719;49.322;8.536;2023-04-07T04:16:11;7.50;;;6.80;;
19173;SDS011;9719;49.322;8.536;2023-04-07T04:21:13;9.53;;;7.07;;
19173;SDS011;9719;49.322;8.536;2023-04-07T04:26:15;7.70;;;6.80;;
19173;SDS011;9719;49.322;8.536;2023-04-07T04:31:18;8.13;;;7.33;;
19173;SDS011;9719;49.322;8.536;2023-04-07T04:36:20;9.40;;;7.27;;
19173;SDS011;9719;49.322;8.536;2023-04-07T04:41:21;8.10;;;7.30;;
19173;SDS011;9719;49.322;8.536;2023-04-07T04:46:24;10.10;;;8.67;;
19173;SDS011;9719;49.322;8.536;2023-04-07T04:51:26;8.73;;;7.40;;
19173;SDS011;9719;49.322;8.536;2023-04-07T04:56:28;9.77;;;8.43;;
19173;SDS011;9719;49.322;8.536;2023-04-07T05:01:31;10.60;;;8.10;;
19173;SDS011;9719;49.322;8.536;2023-04-07T05:06:32;9.30;;;8.07;;
19173;SDS011;9719;49.322;8.536;2023-04-07T05:11:34;9.00;;;8.17;;
19173;SDS011;9719;49.322;8.536;2023-04-07T05:16:37;9.10;;;7.53;;
19173;SDS011;9719;49.322;8.536;2023-04-07T05:21:39;8.47;;;7.43;;
19173;SDS011;9719;49.322;8.536;2023-04-07T05:26:40;8.70;;;7.80;;
19173;SDS011;9719;49.322;8.536;2023-04-07T05:31:43;10.70;;;8.40;;
19173;SDS011;9719;49.322;8.536;2023-04-07T05:36:45;11.43;;;9.27;;
19173;SDS011;9719;49.322;8.536;2023-04-07T05:41:47;10.07;;;7.93;;
19173;SDS011;9719;49.322;8.536;2023-04-07T05:46:50;10.57;;;8.43;;
19173;SDS011;9719;49.322;8.536;2023-04-07T05:51:51;9.63;;;8.53;;
19173;SDS011;9719;49.322;8.536;2023-04-07T05:56:53;10.87;;;9.77;;
19173;SDS011;9719;49.322;8.536;2023-04-07T06:01:56;11.03;;;8.40;;
19173;SDS011;9719;49.322;8.536;2023-04-07T06:06:58;10.90;;;9.80;;
19173;SDS011;9719;49.322;8.536;2023-04-07T06:11:59;9.90;;;8.37;;
19173;SDS011;9719;49.322;8.536;2023-04-07T06:17:05;10.03;;;9.03;;
19173;SDS011;9719;49.322;8.536;2023-04-07T06:22:07;9.53;;;8.60;;
19173;SDS011;9719;49.322;8.536;2023-04-07T06:27:08;9.27;;;8.17;;
19173;SDS011;9719;49.322;8.536;2023-04-07T06:32:11;9.00;;;7.90;;
19173;SDS011;9719;49.322;8.536;2023-04-07T06:37:13;9.40;;;8.27;;
19173;SDS011;9719;49.322;8.536;2023-04-07T06:42:16;8.97;;;8.07;;
19173;SDS011;9719;49.322;8.536;2023-04-07T06:47:19;9.40;;;7.90;;
19173;SDS011;9719;49.322;8.536;2023-04-07T06:52:20;9.70;;;8.60;;
19173;SDS011;9719;49.322;8.536;2023-04-07T06:57:22;9.83;;;8.27;;
19173;SDS011;9719;49.322;8.536;2023-04-07T07:02:25;8.90;;;8.00;;
19173;SDS011;9719;49.322;8.536;2023-04-07T07:07:27;9.07;;;7.83;;
19173;SDS011;9719;49.322;8.536;2023-04-07T07:12:29;7.53;;;6.83;;
19173;SDS011;9719;49.322;8.536;2023-04-07T07:17:32;7.20;;;6.50;;
19173;SDS011;9719;49.322;8.536;2023-04-07T07:22:34;7.53;;;6.67;;
19173;SDS011;9719;49.322;8.536;2023-04-07T07:27:36;7.47;;;6.77;;
19173;SDS011;9719;49.322;8.536;2023-04-07T07:32:39;6.87;;;5.93;;
19173;SDS011;9719;49.322;8.536;2023-04-07T07:37:41;6.93;;;6.25;;
19173;SDS011;9719;49.322;8.536;2023-04-07T07:42:44;5.70;;;5.18;;
19173;SDS011;9719;49.322;8.536;2023-04-07T07:47:47;5.03;;;4.65;;
19173;SDS011;9719;49.322;8.536;2023-04-07T07:52:49;5.63;;;5.13;;
19173;SDS011;9719;49.322;8.536;2023-04-07T07:57:50;5.80;;;5.22;;
19173;SDS011;9719;49.322;8.536;2023-04-07T08:02:53;5.80;;;5.20;;
19173;SDS011;9719;49.322;8.536;2023-04-07T08:08:03;6.68;;;5.45;;
19173;SDS011;9719;49.322;8.536;2023-04-07T08:13:05;6.80;;;6.07;;
19173;SDS011;9719;49.322;8.536;2023-04-07T08:18:07;5.53;;;5.03;;
19173;SDS011;9719;49.322;8.536;2023-04-07T08:23:10;7.10;;;5.40;;
19173;SDS011;9719;49.322;8.536;2023-04-07T08:28:11;6.05;;;5.45;;
19173;SDS011;9719;49.322;8.536;2023-04-07T08:33:13;4.22;;;3.75;;
19173;SDS011;9719;49.322;8.536;2023-04-07T08:38:16;3.75;;;3.45;;
19173;SDS011;9719;49.322;8.536;2023-04-07T08:43:18;4.22;;;3.72;;
19173;SDS011;9719;49.322;8.536;2023-04-07T08:48:22;4.68;;;3.33;;
19173;SDS011;9719;49.322;8.536;2023-04-07T08:53:27;3.85;;;3.42;;
19173;SDS011;9719;49.322;8.536;2023-04-07T08:58:35;4.15;;;3.78;;
19173;SDS011;9719;49.322;8.536;2023-04-07T09:03:38;6.03;;;4.35;;
19173;SDS011;9719;49.322;8.536;2023-04-07T09:08:41;3.72;;;3.40;;
19173;SDS011;9719;49.322;8.536;2023-04-07T09:13:43;3.88;;;3.28;;
19173;SDS011;9719;49.322;8.536;2023-04-07T09:18:45;4.13;;;3.72;;
19173;SDS011;9719;49.322;8.536;2023-04-07T09:23:48;3.65;;;3.35;;
19173;SDS011;9719;49.322;8.536;2023-04-07T09:28:51;4.18;;;3.50;;
19173;SDS011;9719;49.322;8.536;2023-04-07T09:33:54;4.30;;;3.92;;
19173;SDS011;9719;49.322;8.536;2023-04-07T09:39:00;3.00;;;2.80;;
19173;SDS011;9719;49.322;8.536;2023-04-07T09:44:08;4.50;;;3.10;;
19173;SDS011;9719;49.322;8.536;2023-04-07T09:49:10;4.60;;;3.20;;
19173;SDS011;9719;49.322;8.536;2023-04-07T09:54:13;2.80;;;2.50;;
19173;SDS011;9719;49.322;8.536;2023-04-07T09:59:33;3.35;;;3.05;;
19173;SDS011;9719;49.322;8.536;2023-04-07T10:04:36;2.60;;;2.40;;
19173;SDS011;9719;49.322;8.536;2023-04-07T10:09:40;2.85;;;2.65;;
19173;SDS011;9719;49.322;8.536;2023-04-07T10:14:42;2.65;;;2.38;;
19173;SDS011;9719;49.322;8.536;2023-04-07T10:19:46;2.90;;;2.70;;
19173;SDS011;9719;49.322;8.536;2023-04-07T10:24:53;3.75;;;3.22;;
19173;SDS011;9719;49.322;8.536;2023-04-07T10:29:59;4.35;;;2.17;;
19173;SDS011;9719;49.322;8.536;2023-04-07T10:35:03;5.70;;;2.60;;
19173;SDS011;9719;49.322;8.536;2023-04-07T10:56:25;3.50;;;2.08;;
19173;SDS011;9719;49.322;8.536;2023-04-07T11:01:27;3.88;;;2.53;;
19173;SDS011;9719;49.322;8.536;2023-04-07T11:06:28;4.10;;;2.97;;
19173;SDS011;9719;49.322;8.536;2023-04-07T11:11:39;3.55;;;3.25;;
19173;SDS011;9719;49.322;8.536;2023-04-07T11:16:41;2.40;;;2.20;;
19173;SDS011;9719;49.322;8.536;2023-04-07T11:21:44;1.80;;;1.70;;
19173;SDS011;9719;49.322;8.536;2023-04-07T11:26:48;1.90;;;1.70;;
19173;SDS011;9719;49.322;8.536;2023-04-07T11:31:49;1.05;;;0.90;;
19173;SDS011;9719;49.322;8.536;2023-04-07T11:36:51;0.70;;;0.70;;
19173;SDS011;9719;49.322;8.536;2023-04-07T11:41:59;0.90;;;0.68;;
19173;SDS011;9719;49.322;8.536;2023-04-07T11:47:01;0.90;;;0.90;;
19173;SDS011;9719;49.322;8.536;2023-04-07T11:52:04;0.80;;;0.80;;
19173;SDS011;9719;49.322;8.536;2023-04-07T11:57:08;0.65;;;0.65;;
19173;SDS011;9719;49.322;8.536;2023-04-07T12:02:22;0.63;;;0.63;;
19173;SDS011;9719;49.322;8.536;2023-04-07T12:07:31;0.60;;;0.60;;
19173;SDS011;9719;49.322;8.536;2023-04-07T12:12:34;0.40;;;0.40;;
19173;SDS011;9719;49.322;8.536;2023-04-07T12:17:36;0.60;;;0.50;;
19173;SDS011;9719;49.322;8.536;2023-04-07T12:22:38;0.50;;;0.50;;
19173;SDS011;9719;49.322;8.536;2023-04-07T12:27:42;0.82;;;0.82;;
19173;SDS011;9719;49.322;8.536;2023-04-07T12:32:44;1.10;;;1.10;;
19173;SDS011;9719;49.322;8.536;2023-04-07T12:37:46;1.20;;;1.02;;
19173;SDS011;9719;49.322;8.536;2023-04-07T12:42:49;0.70;;;0.70;;
19173;SDS011;9719;49.322;8.536;2023-04-07T12:47:51;0.57;;;0.40;;
19173;SDS011;9719;49.322;8.536;2023-04-07T12:52:52;0.30;;;0.30;;
19173;SDS011;9719;49.322;8.536;2023-04-07T12:57:56;0.35;;;0.35;;
19173;SDS011;9719;49.322;8.536;2023-04-07T13:02:57;0.63;;;0.63;;
19173;SDS011;9719;49.322;8.536;2023-04-07T13:07:59;0.60;;;0.60;;
19173;SDS011;9719;49.322;8.536;2023-04-07T13:13:02;0.70;;;0.70;;
19173;SDS011;9719;49.322;8.536;2023-04-07T13:18:04;0.90;;;0.90;;
19173;SDS011;9719;49.322;8.536;2023-04-07T13:23:07;0.90;;;0.88;;
19173;SDS011;9719;49.322;8.536;2023-04-07T13:28:10;1.25;;;1.20;;
19173;SDS011;9719;49.322;8.536;2023-04-07T13:33:11;1.30;;;1.20;;
19173;SDS011;9719;49.322;8.536;2023-04-07T13:38:13;1.42;;;1.33;;
19173;SDS011;9719;49.322;8.536;2023-04-07T13:43:16;0.90;;;0.90;;
19173;SDS011;9719;49.322;8.536;2023-04-07T13:48:18;1.20;;;1.10;;
19173;SDS011;9719;49.322;8.536;2023-04-07T13:53:20;1.67;;;1.58;;
19173;SDS011;9719;49.322;8.536;2023-04-07T13:58:23;1.60;;;1.50;;
19173;SDS011;9719;49.322;8.536;2023-04-07T14:03:25;2.00;;;1.90;;
19173;SDS011;9719;49.322;8.536;2023-04-07T14:08:27;1.77;;;1.67;;
19173;SDS011;9719;49.322;8.536;2023-04-07T14:13:30;1.67;;;1.52;;
19173;SDS011;9719;49.322;8.536;2023-04-07T14:18:32;1.70;;;1.60;;
19173;SDS011;9719;49.322;8.536;2023-04-07T14:23:34;1.50;;;1.40;;
19173;SDS011;9719;49.322;8.536;2023-04-07T14:28:39;1.20;;;1.20;;
19173;SDS011;9719;49.322;8.536;2023-04-07T14:33:40;2.55;;;1.60;;
19173;SDS011;9719;49.322;8.536;2023-04-07T14:38:42;1.35;;;1.25;;
19173;SDS011;9719;49.322;8.536;2023-04-07T14:43:46;1.20;;;1.10;;
19173;SDS011;9719;49.322;8.536;2023-04-07T14:48:51;1.58;;;1.48;;
19173;SDS011;9719;49.322;8.536;2023-04-07T14:53:52;0.98;;;0.98;;
19173;SDS011;9719;49.322;8.536;2023-04-07T14:58:57;1.23;;;1.23;;
19173;SDS011;9719;49.322;8.536;2023-04-07T15:03:59;1.50;;;1.40;;
19173;SDS011;9719;49.322;8.536;2023-04-07T15:09:01;0.98;;;0.98;;
19173;SDS011;9719;49.322;8.536;2023-04-07T15:14:04;0.88;;;0.88;;
19173;SDS011;9719;49.322;8.536;2023-04-07T15:19:06;1.00;;;0.93;;
19173;SDS011;9719;49.322;8.536;2023-04-07T15:24:08;1.13;;;1.02;;
19173;SDS011;9719;49.322;8.536;2023-04-07T15:29:11;1.08;;;1.08;;
19173;SDS011;9719;49.322;8.536;2023-04-07T15:34:12;1.08;;;1.08;;
19173;SDS011;9719;49.322;8.536;2023-04-07T15:39:14;1.48;;;1.35;;
19173;SDS011;9719;49.322;8.536;2023-04-07T15:44:17;1.50;;;1.40;;
19173;SDS011;9719;49.322;8.536;2023-04-07T15:49:19;3.58;;;1.52;;
19173;SDS011;9719;49.322;8.536;2023-04-07T15:54:21;1.00;;;1.00;;
19173;SDS011;9719;49.322;8.536;2023-04-07T15:59:24;1.35;;;1.02;;
19173;SDS011;9719;49.322;8.536;2023-04-07T16:04:28;2.13;;;1.02;;
19173;SDS011;9719;49.322;8.536;2023-04-07T16:09:30;1.70;;;1.60;;
19173;SDS011;9719;49.322;8.536;2023-04-07T16:14:34;1.38;;;1.27;;
19173;SDS011;9719;49.322;8.536;2023-04-07T16:19:35;1.80;;;1.70;;
19173;SDS011;9719;49.322;8.536;2023-04-07T16:24:37;2.08;;;1.98;;
19173;SDS011;9719;49.322;8.536;2023-04-07T16:29:40;2.10;;;2.00;;
19173;SDS011;9719;49.322;8.536;2023-04-07T16:34:42;2.17;;;2.08;;
19173;SDS011;9719;49.322;8.536;2023-04-07T16:39:43;2.10;;;2.00;;
19173;SDS011;9719;49.322;8.536;2023-04-07T16:44:46;1.63;;;1.52;;
19173;SDS011;9719;49.322;8.536;2023-04-07T16:49:48;1.23;;;1.20;;
19173;SDS011;9719;49.322;8.536;2023-04-07T16:54:50;0.98;;;0.95;;
19173;SDS011;9719;49.322;8.536;2023-04-07T16:59:53;0.80;;;0.80;;
19173;SDS011;9719;49.322;8.536;2023-04-07T17:04:54;1.02;;;1.02;;
19173;SDS011;9719;49.322;8.536;2023-04-07T17:09:56;1.42;;;1.33;;
19173;SDS011;9719;49.322;8.536;2023-04-07T17:14:59;2.67;;;1.50;;
19173;SDS011;9719;49.322;8.536;2023-04-07T17:20:01;1.30;;;1.20;;
19173;SDS011;9719;49.322;8.536;2023-04-07T17:25:04;1.40;;;1.30;;
19173;SDS011;9719;49.322;8.536;2023-04-07T17:30:08;1.25;;;1.17;;
19173;SDS011;9719;49.322;8.536;2023-04-07T17:35:10;1.13;;;1.13;;
19173;SDS011;9719;49.322;8.536;2023-04-07T17:40:12;1.40;;;1.30;;
19173;SDS011;9719;49.322;8.536;2023-04-07T17:45:15;1.10;;;1.10;;
19173;SDS011;9719;49.322;8.536;2023-04-07T17:50:17;1.80;;;1.70;;
19173;SDS011;9719;49.322;8.536;2023-04-07T17:55:18;1.38;;;1.17;;
19173;SDS011;9719;49.322;8.536;2023-04-07T18:00:22;1.30;;;1.20;;
19173;SDS011;9719;49.322;8.536;2023-04-07T18:05:24;1.55;;;1.45;;
19173;SDS011;9719;49.322;8.536;2023-04-07T18:10:26;3.80;;;1.27;;
19173;SDS011;9719;49.322;8.536;2023-04-07T18:15:30;1.60;;;1.50;;
19173;SDS011;9719;49.322;8.536;2023-04-07T18:20:31;1.25;;;1.23;;
19173;SDS011;9719;49.322;8.536;2023-04-07T18:25:33;1.45;;;1.42;;
19173;SDS011;9719;49.322;8.536;2023-04-07T18:30:36;1.30;;;1.30;;
19173;SDS011;9719;49.322;8.536;2023-04-07T18:35:38;2.03;;;1.88;;
19173;SDS011;9719;49.322;8.536;2023-04-07T18:40:40;1.70;;;1.60;;
19173;SDS011;9719;49.322;8.536;2023-04-07T18:45:43;1.92;;;1.83;;
19173;SDS011;9719;49.322;8.536;2023-04-07T18:50:49;1.63;;;1.52;;
19173;SDS011;9719;49.322;8.536;2023-04-07T18:55:51;1.50;;;1.40;;
19173;SDS011;9719;49.322;8.536;2023-04-07T19:00:54;1.55;;;1.45;;
19173;SDS011;9719;49.322;8.536;2023-04-07T19:05:57;1.65;;;1.55;;
19173;SDS011;9719;49.322;8.536;2023-04-07T19:10:59;1.80;;;1.70;;
19173;SDS011;9719;49.322;8.536;2023-04-07T19:16:02;1.80;;;1.70;;
19173;SDS011;9719;49.322;8.536;2023-04-07T19:21:04;1.85;;;1.75;;
19173;SDS011;9719;49.322;8.536;2023-04-07T19:26:08;2.47;;;2.28;;
19173;SDS011;9719;49.322;8.536;2023-04-07T19:31:11;2.17;;;1.73;;
19173;SDS011;9719;49.322;8.536;2023-04-07T19:36:13;1.80;;;1.70;;
19173;SDS011;9719;49.322;8.536;2023-04-07T19:41:15;2.75;;;2.55;;
19173;SDS011;9719;49.322;8.536;2023-04-07T19:46:18;2.55;;;2.35;;
19173;SDS011;9719;49.322;8.536;2023-04-07T19:51:19;3.88;;;2.33;;
19173;SDS011;9719;49.322;8.536;2023-04-07T19:56:21;2.28;;;1.90;;
19173;SDS011;9719;49.322;8.536;2023-04-07T20:01:25;2.07;;;1.97;;
19173;SDS011;9719;49.322;8.536;2023-04-07T20:06:27;2.20;;;2.10;;
19173;SDS011;9719;49.322;8.536;2023-04-07T20:11:29;1.58;;;1.48;;
19173;SDS011;9719;49.322;8.536;2023-04-07T20:16:32;1.90;;;1.80;;
19173;SDS011;9719;49.322;8.536;2023-04-07T20:21:34;1.83;;;1.73;;
19173;SDS011;9719;49.322;8.536;2023-04-07T20:26:36;2.73;;;2.33;;
19173;SDS011;9719;49.322;8.536;2023-04-07T20:31:39;2.27;;;2.17;;
19173;SDS011;9719;49.322;8.536;2023-04-07T20:36:41;2.07;;;1.97;;
19173;SDS011;9719;49.322;8.536;2023-04-07T20:41:42;2.63;;;2.22;;
19173;SDS011;9719;49.322;8.536;2023-04-07T20:46:46;1.23;;;1.13;;
19173;SDS011;9719;49.322;8.536;2023-04-07T20:51:48;0.90;;;0.90;;
19173;SDS011;9719;49.322;8.536;2023-04-07T20:56:50;1.13;;;1.13;;
19173;SDS011;9719;49.322;8.536;2023-04-07T21:01:53;1.58;;;1.48;;
19173;SDS011;9719;49.322;8.536;2023-04-07T21:06:57;1.40;;;1.30;;
19173;SDS011;9719;49.322;8.536;2023-04-07T21:11:58;1.00;;;1.00;;
19173;SDS011;9719;49.322;8.536;2023-04-07T21:17:03;1.70;;;1.27;;
19173;SDS011;9719;49.322;8.536;2023-04-07T21:22:05;1.00;;;1.00;;
19173;SDS011;9719;49.322;8.536;2023-04-07T21:27:07;1.20;;;1.10;;
19173;SDS011;9719;49.322;8.536;2023-04-07T21:32:10;1.23;;;1.20;;
19173;SDS011;9719;49.322;8.536;2023-04-07T21:37:12;1.05;;;1.05;;
19173;SDS011;9719;49.322;8.536;2023-04-07T21:42:14;1.10;;;1.10;;
19173;SDS011;9719;49.322;8.536;2023-04-07T21:47:17;1.40;;;1.40;;
19173;SDS011;9719;49.322;8.536;2023-04-07T21:52:19;1.35;;;1.30;;
19173;SDS011;9719;49.322;8.536;2023-04-07T21:57:21;1.23;;;1.13;;
19173;SDS011;9719;49.322;8.536;2023-04-07T22:02:24;1.57;;;1.47;;
19173;SDS011;9719;49.322;8.536;2023-04-07T22:07:26;1.20;;;1.10;;
19173;SDS011;9719;49.322;8.536;2023-04-07T22:12:27;1.92;;;1.73;;
19173;SDS011;9719;49.322;8.536;2023-04-07T22:22:33;1.73;;;1.50;;
19173;SDS011;9719;49.322;8.536;2023-04-07T22:27:35;2.03;;;1.93;;
19173;SDS011;9719;49.322;8.536;2023-04-07T22:32:38;1.57;;;1.47;;
19173;SDS011;9719;49.322;8.536;2023-04-07T22:37:40;1.80;;;1.70;;
19173;SDS011;9719;49.322;8.536;2023-04-07T22:42:42;3.30;;;2.50;;
19173;SDS011;9719;49.322;8.536;2023-04-07T22:47:45;3.33;;;2.10;;
19173;SDS011;9719;49.322;8.536;2023-04-07T22:52:46;1.73;;;1.63;;
19173;SDS011;9719;49.322;8.536;2023-04-07T22:57:48;2.33;;;1.60;;
19173;SDS011;9719;49.322;8.536;2023-04-07T23:02:51;2.13;;;1.90;;
19173;SDS011;9719;49.322;8.536;2023-04-07T23:07:53;2.00;;;1.90;;
19173;SDS011;9719;49.322;8.536;2023-04-07T23:12:54;1.80;;;1.60;;
19173;SDS011;9719;49.322;8.536;2023-04-07T23:17:57;2.13;;;2.00;;
19173;SDS011;9719;49.322;8.536;2023-04-07T23:22:59;1.63;;;1.53;;
19173;SDS011;9719;49.322;8.536;2023-04-07T23:28:01;1.97;;;1.87;;
19173;SDS011;9719;49.322;8.536;2023-04-07T23:33:04;2.30;;;2.00;;
19173;SDS011;9719;49.322;8.536;2023-04-07T23:38:06;2.07;;;1.97;;
19173;SDS011;9719;49.322;8.536;2023-04-07T23:43:09;2.13;;;1.97;;
19173;SDS011;9719;49.322;8.536;2023-04-07T23:48:13;2.37;;;2.17;;
19173;SDS011;9719;49.322;8.536;2023-04-07T23:53:15;3.27;;;2.77;;
19173;SDS011;9719;49.322;8.536;2023-04-07T23:58:16;3.40;;;2.53;;
